Terminal Aerodrome Forecast
Issued by NWS

Home | Current Version | Previous Version | Text Only | Print | Product List | Glossary Off
Versions: 1 2 3 4 5 6 7 8 9 10 11 12 13 14 15 16 17

000
FTUS43 KABR 180438 AAA
TAFPIR
TAF AMD
KPIR 180438Z 1805/1824 06007KT P6SM OVC080
     FM180600 04008KT 4SM -RASN OVC045
     FM180800 36007KT 4SM -SNRA OVC015
     FM180900 34008KT 2SM -SN OVC010
     FM181700 33011KT 4SM -RA BKN040=

USA.gov is the U.S. government's official web portal to all federal, state and local government web resources and services.